Time;durP1;ratioP1;P1;durP2;ratioP2;P2;SDS_P1;SDS_P2;PMS_P1;PMS_P2;Temp;Humidity;BMP_temperature;BMP_pressure;BME280_temperature;BME280_humidity;BME280_pressure;Samples;Min_cycle;Max_cycle;Signal;HPM_P1;HPM_P2
2021/11/15 11:26:17;;;;;;;;;21.25;20.25;;;;;;;;7328657;19;149154;-72
2021/11/15 11:28:46;;;;;;;;;19.75;17.75;;;;;;;;7325721;19;149780;-74
2021/11/15 11:31:14;;;;;;;;;23.50;19.00;;;;;;;;7324778;19;149345;-75
2021/11/15 11:33:40;;;;;;;;;24.75;17.50;;;;;;;;7326509;19;149485;-74
2021/11/15 11:36:06;;;;;;;;;23.50;20.00;;;;;;;;7326056;19;150408;-72
2021/11/15 11:38:32;;;;;;;;;19.50;17.25;;;;;;;;7327233;19;149408;-80
2021/11/15 11:40:58;;;;;;;;;19.00;18.00;;;;;;;;7322217;19;149453;-78
2021/11/15 11:43:24;;;;;;;;;21.00;20.50;;;;;;;;7324691;19;150112;-79
2021/11/15 11:45:49;;;;;;;;;19.50;18.25;;;;;;;;7327944;19;149230;-79
2021/11/15 11:48:15;;;;;;;;;18.00;15.00;;;;;;;;7325118;19;149798;-79
2021/11/15 11:50:48;;;;;;;;;25.75;21.25;;;;;;;;7325518;19;150305;-80
2021/11/15 11:53:19;;;;;;;;;18.00;18.00;;;;;;;;7326085;19;149296;-81
2021/11/15 11:55:45;;;;;;;;;20.50;17.00;;;;;;;;7325280;19;149995;-79
2021/11/15 11:58:23;;;;;;;;;19.00;16.00;;;;;;;;7326249;19;149042;-80
2021/11/15 12:00:49;;;;;;;;;18.50;14.25;;;;;;;;7326242;19;149245;-73
2021/11/15 12:03:14;;;;;;;;;18.50;14.00;;;;;;;;7324078;19;149982;-74
2021/11/15 12:05:39;;;;;;;;;15.25;13.75;;;;;;;;7322976;19;149529;-73
2021/11/15 12:08:08;;;;;;;;;19.75;16.25;;;;;;;;7332177;19;149982;-74
2021/11/15 12:10:33;;;;;;;;;20.00;15.00;;;;;;;;7325429;19;149280;-78
2021/11/15 12:13:04;;;;;;;;;16.75;16.00;;;;;;;;7325958;19;149516;-78
2021/11/15 12:15:39;;;;;;;;;19.50;18.00;;;;;;;;7324597;19;150254;-75
2021/11/15 12:18:09;;;;;;;;;25.25;20.75;;;;;;;;7326024;19;150628;-79
2021/11/15 12:20:54;;;;;;;;;22.00;16.75;;;;;;;;7325960;19;149965;-85
2021/11/15 12:23:20;;;;;;;;;21.00;20.50;;;;;;;;7323970;19;149593;-72
2021/11/15 12:25:59;;;;;;;;;18.50;14.00;;;;;;;;7323194;19;150276;-72
2021/11/15 12:28:29;;;;;;;;;22.75;19.50;;;;;;;;7324567;19;150915;-75
2021/11/15 12:30:56;;;;;;;;;27.25;24.75;;;;;;;;7330464;19;151366;-77
2021/11/15 12:33:23;;;;;;;;;25.50;21.25;;;;;;;;7324435;19;149156;-76
2021/11/15 12:36:24;;;;;;;;;28.00;24.50;;;;;;;;7312238;19;150247;-77
2021/11/15 12:38:50;;;;;;;;;25.25;24.00;;;;;;;;7289631;19;149798;-77
2021/11/15 12:41:15;;;;;;;;;24.50;19.25;;;;;;;;7295001;19;149521;-79
2021/11/15 12:43:41;;;;;;;;;23.75;20.25;;;;;;;;7294540;19;149212;-72
2021/11/15 12:46:18;;;;;;;;;21.75;18.00;;;;;;;;7294665;19;148971;-80
2021/11/15 12:48:49;;;;;;;;;20.50;18.50;;;;;;;;7295527;19;149531;-75
2021/11/15 12:51:18;;;;;;;;;20.00;17.50;;;;;;;;7295857;19;149435;-75
2021/11/15 12:53:45;;;;;;;;;14.75;12.75;;;;;;;;7302731;19;150414;-74
2021/11/15 12:56:18;;;;;;;;;14.25;11.50;;;;;;;;7294704;19;151305;-78
2021/11/15 12:58:48;;;;;;;;;21.25;16.75;;;;;;;;7296071;19;149385;-77
2021/11/15 13:01:15;;;;;;;;;22.25;16.00;;;;;;;;7295921;19;150399;-84
2021/11/15 13:03:44;;;;;;;;;9.50;9.00;;;;;;;;7293641;19;150365;-77
2021/11/15 13:06:11;;;;;;;;;7.00;7.00;;;;;;;;7293548;19;149498;-74
2021/11/15 13:08:37;;;;;;;;;8.25;6.25;;;;;;;;7295544;19;150633;-73
2021/11/15 13:11:03;;;;;;;;;9.50;7.00;;;;;;;;7294743;19;149965;-75
2021/11/15 13:13:28;;;;;;;;;8.00;7.00;;;;;;;;7293156;19;149141;-72
2021/11/15 13:15:54;;;;;;;;;7.75;6.25;;;;;;;;7302165;19;149369;-73
2021/11/15 13:18:19;;;;;;;;;7.50;5.25;;;;;;;;7295145;19;149031;-71
2021/11/15 13:20:44;;;;;;;;;8.50;5.75;;;;;;;;7295724;19;150742;-72
2021/11/15 13:23:10;;;;;;;;;11.75;4.75;;;;;;;;7292921;19;152392;-72
2021/11/15 13:25:35;;;;;;;;;7.00;4.00;;;;;;;;7292316;19;150644;-71
2021/11/15 13:28:01;;;;;;;;;6.25;6.25;;;;;;;;7295779;19;149277;-72
2021/11/15 13:30:26;;;;;;;;;4.75;4.50;;;;;;;;7292983;19;149542;-73
2021/11/15 13:32:52;;;;;;;;;9.00;5.25;;;;;;;;7294681;19;149129;-71
2021/11/15 13:35:18;;;;;;;;;6.00;6.00;;;;;;;;7293181;19;149285;-73
2021/11/15 13:37:44;;;;;;;;;8.50;6.50;;;;;;;;7299324;19;149321;-72
2021/11/15 13:40:09;;;;;;;;;9.50;5.25;;;;;;;;7294756;19;149728;-71
2021/11/15 13:42:35;;;;;;;;;6.50;5.00;;;;;;;;7293587;19;150617;-72
2021/11/15 13:45:00;;;;;;;;;7.25;6.50;;;;;;;;7292628;19;149258;-72
2021/11/15 13:47:26;;;;;;;;;6.50;6.50;;;;;;;;7291792;19;149809;-71
2021/11/15 13:49:52;;;;;;;;;9.00;6.25;;;;;;;;7291810;19;149742;-71
2021/11/15 13:52:17;;;;;;;;;5.25;5.25;;;;;;;;7293588;19;150399;-72
2021/11/15 13:54:46;;;;;;;;;7.50;5.50;;;;;;;;7291056;19;149444;-72
2021/11/15 13:57:11;;;;;;;;;7.50;7.25;;;;;;;;7293788;19;150687;-72
2021/11/15 13:59:37;;;;;;;;;8.50;8.00;;;;;;;;7291558;19;149381;-72
2021/11/15 14:02:03;;;;;;;;;7.00;7.00;;;;;;;;7293799;19;150499;-73
2021/11/15 14:04:28;;;;;;;;;10.00;7.00;;;;;;;;7293442;19;149950;-72
2021/11/15 14:06:53;;;;;;;;;8.75;5.25;;;;;;;;7293255;19;149269;-73
2021/11/15 14:09:19;;;;;;;;;7.00;7.00;;;;;;;;7293137;19;150029;-72
2021/11/15 14:11:44;;;;;;;;;8.25;7.00;;;;;;;;7294144;19;148898;-76
2021/11/15 14:14:10;;;;;;;;;6.75;6.75;;;;;;;;7293722;19;149282;-72
2021/11/15 14:16:35;;;;;;;;;4.50;4.50;;;;;;;;7292510;19;149363;-72
2021/11/15 14:19:00;;;;;;;;;8.00;7.00;;;;;;;;7301188;19;149019;-73
2021/11/15 14:21:25;;;;;;;;;7.75;5.50;;;;;;;;7291620;19;150210;-73
2021/11/15 14:23:51;;;;;;;;;5.00;5.00;;;;;;;;7290855;19;149796;-74
2021/11/15 14:26:16;;;;;;;;;5.25;4.00;;;;;;;;7290401;19;149291;-72
2021/11/15 14:28:42;;;;;;;;;7.75;6.50;;;;;;;;7291381;19;151192;-72
2021/11/15 14:31:10;;;;;;;;;12.00;6.75;;;;;;;;7291332;19;149430;-73
2021/11/15 14:33:35;;;;;;;;;7.00;5.25;;;;;;;;7291740;19;151016;-73
2021/11/15 14:36:00;;;;;;;;;11.50;7.00;;;;;;;;7290267;19;149826;-74
2021/11/15 14:38:26;;;;;;;;;7.00;4.25;;;;;;;;7279695;19;149327;-73
2021/11/15 14:40:51;;;;;;;;;8.50;7.50;;;;;;;;7299311;19;149246;-73
2021/11/15 14:43:17;;;;;;;;;4.50;4.50;;;;;;;;7293433;19;149073;-76
2021/11/15 14:45:42;;;;;;;;;5.25;4.25;;;;;;;;7292230;19;149110;-79
2021/11/15 14:48:07;;;;;;;;;4.25;4.25;;;;;;;;7292523;19;149860;-77
2021/11/15 14:50:33;;;;;;;;;5.50;4.75;;;;;;;;7292401;19;148989;-77
2021/11/15 14:52:58;;;;;;;;;5.00;5.00;;;;;;;;7293149;19;149469;-76
2021/11/15 14:55:24;;;;;;;;;5.00;4.00;;;;;;;;7291473;19;151073;-77
2021/11/15 14:57:50;;;;;;;;;5.00;5.00;;;;;;;;7292369;19;149054;-77
2021/11/15 15:00:17;;;;;;;;;7.50;5.50;;;;;;;;7292452;19;148884;-77
2021/11/15 15:02:42;;;;;;;;;6.00;6.00;;;;;;;;7298757;19;149893;-78
2021/11/15 15:05:08;;;;;;;;;6.00;4.25;;;;;;;;7291498;19;149100;-77
2021/11/15 15:07:35;;;;;;;;;4.50;4.50;;;;;;;;7291279;19;149740;-78
2021/11/15 15:10:06;;;;;;;;;5.00;4.25;;;;;;;;7290086;19;149124;-77
2021/11/15 15:12:32;;;;;;;;;5.00;4.00;;;;;;;;7291994;19;150501;-78
2021/11/15 15:14:58;;;;;;;;;5.75;4.50;;;;;;;;7288592;19;152982;-76
2021/11/15 15:17:24;;;;;;;;;10.50;7.00;;;;;;;;7291494;19;149026;-76
2021/11/15 15:20:00;;;;;;;;;6.50;5.50;;;;;;;;7291991;19;149656;-78
2021/11/15 15:22:25;;;;;;;;;5.75;5.75;;;;;;;;7289762;19;152312;-80
2021/11/15 15:24:50;;;;;;;;;7.00;6.00;;;;;;;;7298492;19;149131;-78
2021/11/15 15:27:16;;;;;;;;;7.25;5.25;;;;;;;;7287742;19;150200;-84
2021/11/15 15:29:41;;;;;;;;;6.75;6.50;;;;;;;;7291914;19;149404;-81
2021/11/15 15:32:07;;;;;;;;;7.50;6.00;;;;;;;;7292511;19;149139;-81
2021/11/15 15:34:32;;;;;;;;;5.75;5.75;;;;;;;;7290235;19;149901;-81
2021/11/15 15:36:57;;;;;;;;;6.50;6.00;;;;;;;;7291082;19;149330;-86
2021/11/15 15:39:23;;;;;;;;;6.75;6.00;;;;;;;;7289933;19;152711;-83
2021/11/15 15:41:49;;;;;;;;;5.25;5.00;;;;;;;;7291140;19;149816;-78
2021/11/15 15:44:15;;;;;;;;;5.00;5.00;;;;;;;;7297518;19;149087;-79
2021/11/15 15:46:40;;;;;;;;;9.00;5.75;;;;;;;;7285614;19;153736;-79
2021/11/15 15:49:05;;;;;;;;;8.50;6.25;;;;;;;;7290340;19;149191;-79
2021/11/15 15:51:31;;;;;;;;;5.25;4.75;;;;;;;;7291037;19;149230;-84
2021/11/15 15:53:57;;;;;;;;;5.25;5.25;;;;;;;;7290311;19;149722;-83
2021/11/15 15:56:26;;;;;;;;;6.75;6.75;;;;;;;;7291800;19;148944;-85
2021/11/15 15:58:52;;;;;;;;;6.25;5.25;;;;;;;;7291822;19;150031;-83
2021/11/15 16:01:18;;;;;;;;;8.25;5.00;;;;;;;;7289150;19;149717;-80
2021/11/15 16:03:46;;;;;;;;;9.75;9.00;;;;;;;;7289796;19;149077;-82
2021/11/15 16:09:04;;;;;;;;;12.75;9.00;;;;;;;;7290987;19;149974;-78
2021/11/15 16:14:42;;;;;;;;;9.00;7.75;;;;;;;;7296532;19;149709;-85
2021/11/15 16:19:44;;;;;;;;;9.50;8.50;;;;;;;;7295906;19;149328;-83
2021/11/15 16:22:10;;;;;;;;;6.75;6.00;;;;;;;;7296571;19;150465;-77
2021/11/15 16:24:35;;;;;;;;;6.50;6.50;;;;;;;;7297558;19;149282;-79
2021/11/15 16:27:01;;;;;;;;;11.25;8.50;;;;;;;;7299035;19;149978;-82
2021/11/15 16:29:26;;;;;;;;;9.25;6.50;;;;;;;;7303721;19;149772;-77
2021/11/15 16:31:52;;;;;;;;;9.00;6.50;;;;;;;;7296649;19;151757;-76
2021/11/15 16:34:17;;;;;;;;;6.50;6.50;;;;;;;;7293962;19;151784;-90
2021/11/15 16:36:43;;;;;;;;;13.00;9.00;;;;;;;;7296973;19;149690;-83
2021/11/15 16:39:10;;;;;;;;;12.00;8.75;;;;;;;;7297867;19;149718;-86
2021/11/15 16:41:36;;;;;;;;;10.50;9.00;;;;;;;;7294555;19;152857;-86
2021/11/15 16:44:01;;;;;;;;;8.25;8.25;;;;;;;;7296521;19;149345;-77
2021/11/15 16:46:27;;;;;;;;;11.33;9.00;;;;;;;;7294757;19;148984;-80
2021/11/15 16:48:52;;;;;;;;;10.00;9.00;;;;;;;;7297168;19;150300;-79
2021/11/15 16:51:18;;;;;;;;;10.00;9.25;;;;;;;;7305107;19;149060;-79
2021/11/15 16:53:43;;;;;;;;;12.75;12.00;;;;;;;;7294407;19;149385;-79
2021/11/15 16:56:09;;;;;;;;;5.50;5.00;;;;;;;;7295580;19;148923;-80
2021/11/15 16:58:35;;;;;;;;;13.25;12.75;;;;;;;;7295129;19;149291;-84
2021/11/15 17:01:01;;;;;;;;;14.00;13.00;;;;;;;;7294632;19;149281;-80
2021/11/15 17:03:28;;;;;;;;;13.50;13.00;;;;;;;;7294477;19;149281;-80
2021/11/15 17:05:56;;;;;;;;;12.75;9.50;;;;;;;;7293747;19;149291;-80
2021/11/15 17:08:27;;;;;;;;;13.00;10.50;;;;;;;;7294386;19;149737;-82
2021/11/15 17:10:53;;;;;;;;;26.50;16.75;;;;;;;;7294016;19;149414;-80
2021/11/15 17:13:22;;;;;;;;;16.00;13.50;;;;;;;;7298625;19;150034;-77
2021/11/15 17:15:51;;;;;;;;;16.50;12.50;;;;;;;;7292819;19;149587;-77
2021/11/15 17:18:18;;;;;;;;;17.25;14.50;;;;;;;;7291129;19;149955;-79
2021/11/15 17:20:44;;;;;;;;;13.50;13.00;;;;;;;;7290517;19;152016;-79
2021/11/15 17:23:10;;;;;;;;;17.50;14.00;;;;;;;;7292327;19;149027;-80
2021/11/15 17:25:35;;;;;;;;;20.25;15.50;;;;;;;;7290727;19;151529;-77
2021/11/15 17:28:01;;;;;;;;;15.25;13.00;;;;;;;;7293441;19;149804;-76
2021/11/15 17:30:27;;;;;;;;;18.00;13.25;;;;;;;;7289484;19;149658;-75
2021/11/15 17:32:53;;;;;;;;;18.00;12.50;;;;;;;;7293355;19;149540;-77
2021/11/15 17:35:18;;;;;;;;;13.25;13.00;;;;;;;;7300092;19;150787;-77
2021/11/15 17:37:44;;;;;;;;;20.50;17.50;;;;;;;;7292904;19;150112;-77
2021/11/15 17:40:10;;;;;;;;;16.00;13.75;;;;;;;;7291678;19;150040;-75
2021/11/15 17:42:35;;;;;;;;;18.00;13.75;;;;;;;;7293509;19;149152;-75
2021/11/15 17:45:01;;;;;;;;;11.25;11.25;;;;;;;;7293037;19;149346;-75
2021/11/15 17:47:27;;;;;;;;;17.50;14.00;;;;;;;;7291793;19;149430;-75
2021/11/15 17:49:54;;;;;;;;;19.33;13.00;;;;;;;;7293156;19;149673;-75
2021/11/15 17:52:27;;;;;;;;;16.25;13.00;;;;;;;;7290285;19;152561;-76
2021/11/15 17:57:25;;;;;;;;;19.50;16.75;;;;;;;;7292840;19;150778;-75
2021/11/15 17:59:50;;;;;;;;;14.00;14.00;;;;;;;;7289189;19;150717;-73
2021/11/15 18:02:16;;;;;;;;;18.50;13.25;;;;;;;;7292173;19;149147;-73
2021/11/15 18:04:41;;;;;;;;;16.75;16.75;;;;;;;;7293639;19;149143;-76
2021/11/15 18:07:06;;;;;;;;;11.50;11.50;;;;;;;;7290636;19;153387;-74
2021/11/15 18:09:32;;;;;;;;;18.00;17.00;;;;;;;;7292133;19;149218;-74
2021/11/15 18:12:00;;;;;;;;;16.25;14.00;;;;;;;;7292469;19;149492;-75
2021/11/15 18:14:26;;;;;;;;;20.25;16.00;;;;;;;;7291682;19;149664;-75
2021/11/15 18:16:52;;;;;;;;;20.25;18.50;;;;;;;;7298400;19;149005;-75
2021/11/15 18:19:25;;;;;;;;;20.00;13.75;;;;;;;;7292090;19;151219;-75
2021/11/15 18:21:52;;;;;;;;;20.50;16.00;;;;;;;;7292654;19;148878;-75
2021/11/15 18:24:18;;;;;;;;;18.50;15.75;;;;;;;;7293201;19;149986;-75
2021/11/15 18:26:45;;;;;;;;;20.25;17.00;;;;;;;;7291792;19;151406;-74
2021/11/15 18:29:11;;;;;;;;;18.50;16.75;;;;;;;;7292281;19;148798;-74
2021/11/15 18:31:37;;;;;;;;;21.75;17.50;;;;;;;;7293251;19;149505;-74
2021/11/15 18:34:02;;;;;;;;;40.50;35.50;;;;;;;;7289214;19;151231;-85
2021/11/15 18:36:31;;;;;;;;;33.50;25.50;;;;;;;;7289574;19;149644;-86
2021/11/15 18:39:01;;;;;;;;;18.25;17.75;;;;;;;;7296978;19;153131;-85
2021/11/15 18:41:26;;;;;;;;;23.25;19.50;;;;;;;;7291346;19;149115;-85
2021/11/15 18:43:57;;;;;;;;;20.00;17.00;;;;;;;;7291852;19;149676;-84
2021/11/15 18:46:23;;;;;;;;;20.75;20.75;;;;;;;;7290843;19;154075;-84
2021/11/15 18:48:49;;;;;;;;;19.00;18.75;;;;;;;;7292810;19;149695;-84
2021/11/15 18:51:19;;;;;;;;;24.00;21.75;;;;;;;;7292911;19;150711;-84
2021/11/15 18:53:45;;;;;;;;;23.50;20.25;;;;;;;;7290520;19;150657;-83
2021/11/15 18:56:11;;;;;;;;;23.00;21.75;;;;;;;;7290767;19;149326;-73
2021/11/15 18:58:36;;;;;;;;;22.75;19.25;;;;;;;;7291521;19;149560;-72
2021/11/15 19:01:02;;;;;;;;;26.00;20.00;;;;;;;;7298056;19;150144;-73
2021/11/15 19:03:27;;;;;;;;;19.25;17.25;;;;;;;;7292609;19;150704;-72
2021/11/15 19:05:59;;;;;;;;;22.00;18.00;;;;;;;;7291051;19;149531;-73
2021/11/15 19:08:36;;;;;;;;;13.75;13.25;;;;;;;;7292318;19;149044;-75
2021/11/15 19:11:07;;;;;;;;;20.00;17.00;;;;;;;;7292167;19;150777;-74
2021/11/15 19:13:34;;;;;;;;;16.00;14.00;;;;;;;;7284621;19;151252;-79
2021/11/15 19:16:01;;;;;;;;;18.50;16.25;;;;;;;;7289421;19;149710;-74
2021/11/15 19:18:27;;;;;;;;;14.25;9.50;;;;;;;;7290815;19;151118;-77
2021/11/15 19:20:53;;;;;;;;;20.00;17.25;;;;;;;;7290105;19;151692;-76
2021/11/15 19:23:19;;;;;;;;;15.75;15.75;;;;;;;;7299116;19;150220;-77
2021/11/15 19:25:44;;;;;;;;;16.50;15.50;;;;;;;;7286749;19;149727;-77
2021/11/15 19:28:12;;;;;;;;;17.75;16.00;;;;;;;;7289814;19;149110;-78
2021/11/15 19:30:38;;;;;;;;;16.25;13.25;;;;;;;;7291711;19;150528;-80
2021/11/15 19:33:04;;;;;;;;;20.00;17.00;;;;;;;;7291073;19;149537;-76
2021/11/15 19:35:29;;;;;;;;;16.75;13.00;;;;;;;;7291217;19;150669;-75
2021/11/15 19:37:55;;;;;;;;;16.75;14.50;;;;;;;;7290869;19;152047;-80
2021/11/15 19:40:21;;;;;;;;;17.25;15.25;;;;;;;;7290580;19;152310;-79
2021/11/15 19:42:48;;;;;;;;;21.00;14.50;;;;;;;;7291529;19;149235;-77
2021/11/15 19:45:14;;;;;;;;;18.75;16.50;;;;;;;;7297266;19;150021;-77
2021/11/15 19:47:40;;;;;;;;;18.25;14.00;;;;;;;;7298650;19;150422;-77
2021/11/15 19:50:09;;;;;;;;;23.00;18.25;;;;;;;;7298759;19;149700;-73
2021/11/15 19:52:35;;;;;;;;;20.00;12.33;;;;;;;;7297446;19;151416;-76
2021/11/15 19:55:01;;;;;;;;;17.25;13.75;;;;;;;;7299105;19;149067;-77
2021/11/15 19:57:26;;;;;;;;;16.75;16.25;;;;;;;;7296324;19;149402;-76
2021/11/15 19:59:52;;;;;;;;;19.50;16.00;;;;;;;;7296607;19;150124;-76
2021/11/15 20:02:17;;;;;;;;;20.50;18.00;;;;;;;;7298277;19;149062;-75
2021/11/15 20:04:44;;;;;;;;;19.25;17.00;;;;;;;;7304283;19;150072;-74
2021/11/15 20:07:10;;;;;;;;;21.50;18.50;;;;;;;;7298161;19;149373;-76
2021/11/15 20:09:36;;;;;;;;;17.25;16.75;;;;;;;;7296549;19;151116;-75
2021/11/15 20:12:02;;;;;;;;;18.00;15.50;;;;;;;;7295650;19;150254;-74
2021/11/15 20:14:28;;;;;;;;;20.25;14.50;;;;;;;;7297922;19;150058;-75
2021/11/15 20:16:53;;;;;;;;;16.25;14.00;;;;;;;;7296504;19;150706;-76
2021/11/15 20:19:19;;;;;;;;;19.50;14.00;;;;;;;;7296534;19;151167;-75
2021/11/15 20:21:45;;;;;;;;;23.00;19.00;;;;;;;;7297940;19;149198;-76
2021/11/15 20:24:10;;;;;;;;;14.00;11.00;;;;;;;;7296056;19;149772;-76
2021/11/15 20:26:35;;;;;;;;;18.25;17.50;;;;;;;;7302654;19;151435;-77
2021/11/15 20:29:01;;;;;;;;;25.50;20.00;;;;;;;;7293519;19;149260;-78
2021/11/15 20:31:26;;;;;;;;;23.00;17.00;;;;;;;;7295646;19;150539;-76
2021/11/15 20:33:52;;;;;;;;;23.00;19.00;;;;;;;;7296327;19;149824;-80
2021/11/15 20:36:17;;;;;;;;;21.25;14.50;;;;;;;;7295110;19;149188;-76
2021/11/15 20:38:43;;;;;;;;;17.75;17.00;;;;;;;;7295108;19;150290;-77
2021/11/15 20:41:09;;;;;;;;;18.50;13.25;;;;;;;;7295612;19;149365;-75
2021/11/15 20:43:35;;;;;;;;;16.75;14.00;;;;;;;;7296268;19;149292;-74
2021/11/15 20:46:00;;;;;;;;;16.00;13.00;;;;;;;;7294747;19;150076;-75
2021/11/15 20:48:26;;;;;;;;;16.50;16.25;;;;;;;;7303690;19;149195;-76
2021/11/15 20:50:54;;;;;;;;;20.50;18.25;;;;;;;;7293401;19;152497;-75
2021/11/15 20:53:20;;;;;;;;;20.25;17.75;;;;;;;;7295673;19;149605;-76
2021/11/15 20:55:46;;;;;;;;;22.75;17.00;;;;;;;;7294705;19;151554;-77
2021/11/15 20:58:12;;;;;;;;;13.00;13.00;;;;;;;;7291476;19;151017;-77
2021/11/15 21:00:39;;;;;;;;;21.50;17.00;;;;;;;;7296557;19;150135;-75
2021/11/15 21:03:05;;;;;;;;;20.25;17.00;;;;;;;;7296502;19;150105;-74
2021/11/15 21:05:34;;;;;;;;;19.75;13.75;;;;;;;;7295678;19;150326;-72
2021/11/15 21:08:03;;;;;;;;;23.50;17.50;;;;;;;;7296584;19;149121;-77
2021/11/15 21:10:28;;;;;;;;;24.75;19.25;;;;;;;;7302820;19;149428;-73
2021/11/15 21:12:54;;;;;;;;;24.50;16.00;;;;;;;;7295818;19;149492;-73
2021/11/15 21:15:19;;;;;;;;;17.25;15.25;;;;;;;;7295679;19;149516;-73
2021/11/15 21:17:44;;;;;;;;;21.25;19.00;;;;;;;;7295146;19;149790;-74
2021/11/15 21:20:10;;;;;;;;;22.00;21.00;;;;;;;;7295807;19;149208;-74
2021/11/15 21:22:37;;;;;;;;;24.50;19.00;;;;;;;;7295558;19;149471;-73
2021/11/15 21:25:14;;;;;;;;;18.00;15.50;;;;;;;;7294495;19;150717;-73
2021/11/15 21:27:41;;;;;;;;;19.75;17.75;;;;;;;;7294864;19;149052;-73
2021/11/15 21:30:06;;;;;;;;;14.50;13.75;;;;;;;;7295865;19;149048;-74
2021/11/15 21:32:32;;;;;;;;;17.00;17.00;;;;;;;;7299989;19;151471;-74
2021/11/15 21:34:57;;;;;;;;;18.00;15.00;;;;;;;;7295776;19;149751;-73
2021/11/15 21:37:22;;;;;;;;;29.00;20.25;;;;;;;;7291631;19;150126;-76
2021/11/15 21:39:48;;;;;;;;;23.25;17.50;;;;;;;;7295458;19;149124;-75
2021/11/15 21:42:13;;;;;;;;;15.25;13.75;;;;;;;;7294935;19;149203;-77
2021/11/15 21:44:38;;;;;;;;;20.25;17.25;;;;;;;;7293846;19;149831;-76
2021/11/15 21:47:04;;;;;;;;;15.25;15.25;;;;;;;;7295825;19;149082;-76
2021/11/15 21:49:29;;;;;;;;;21.25;18.00;;;;;;;;7295190;19;149839;-76
2021/11/15 21:51:54;;;;;;;;;20.00;16.25;;;;;;;;7293770;19;149280;-76
2021/11/15 21:54:20;;;;;;;;;16.25;13.00;;;;;;;;7302237;19;149239;-76
2021/11/15 21:56:45;;;;;;;;;18.25;16.25;;;;;;;;7291905;19;149390;-75
2021/11/15 21:59:10;;;;;;;;;16.00;14.75;;;;;;;;7294979;19;149043;-75
2021/11/15 22:01:36;;;;;;;;;18.00;13.75;;;;;;;;7295203;19;150233;-75
2021/11/15 22:04:05;;;;;;;;;20.00;14.75;;;;;;;;7292987;19;149174;-73
2021/11/15 22:06:30;;;;;;;;;15.00;13.00;;;;;;;;7295323;19;149684;-74
2021/11/15 22:08:56;;;;;;;;;17.00;14.50;;;;;;;;7293126;19;149246;-75
2021/11/15 22:11:22;;;;;;;;;16.50;13.75;;;;;;;;7293622;19;149765;-74
2021/11/15 22:13:47;;;;;;;;;21.50;17.25;;;;;;;;7302375;19;149392;-75
2021/11/15 22:16:14;;;;;;;;;20.00;17.50;;;;;;;;7292270;19;150631;-76
2021/11/15 22:18:41;;;;;;;;;22.25;17.00;;;;;;;;7294034;19;149176;-74
2021/11/15 22:21:07;;;;;;;;;20.25;17.50;;;;;;;;7292674;19;152826;-76
2021/11/15 22:23:44;;;;;;;;;16.50;15.75;;;;;;;;7293210;19;150181;-75
2021/11/15 22:26:09;;;;;;;;;12.50;12.50;;;;;;;;7292365;19;149137;-75
2021/11/15 22:28:35;;;;;;;;;19.75;15.25;;;;;;;;7293486;19;149348;-76
2021/11/15 22:31:00;;;;;;;;;22.75;15.25;;;;;;;;7290574;19;149274;-74
2021/11/15 22:33:26;;;;;;;;;21.25;17.00;;;;;;;;7290714;19;149412;-76
2021/11/15 22:35:52;;;;;;;;;24.25;17.00;;;;;;;;7296279;19;150251;-74
2021/11/15 22:38:18;;;;;;;;;21.00;18.00;;;;;;;;7292886;19;149035;-76
2021/11/15 22:40:44;;;;;;;;;17.75;15.00;;;;;;;;7294045;19;149212;-76
2021/11/15 22:43:09;;;;;;;;;20.50;17.75;;;;;;;;7293029;19;150142;-76
2021/11/15 22:45:35;;;;;;;;;21.50;17.50;;;;;;;;6995124;19;253444;-75
2021/11/15 22:48:01;;;;;;;;;21.75;19.75;;;;;;;;7293824;19;149109;-74
2021/11/15 22:50:27;;;;;;;;;16.75;16.00;;;;;;;;7292663;19;153090;-76
2021/11/15 22:52:52;;;;;;;;;19.75;17.25;;;;;;;;7293396;19;149052;-77
2021/11/15 22:55:17;;;;;;;;;17.00;14.00;;;;;;;;7293652;19;149135;-77
2021/11/15 22:57:43;;;;;;;;;18.00;14.75;;;;;;;;7297593;19;151532;-76
2021/11/15 23:00:17;;;;;;;;;19.50;13.25;;;;;;;;7292084;19;151793;-75
2021/11/15 23:02:44;;;;;;;;;18.75;13.25;;;;;;;;7288093;19;151357;-74
2021/11/15 23:05:09;;;;;;;;;16.50;14.00;;;;;;;;7288085;19;149268;-76
2021/11/15 23:07:34;;;;;;;;;20.50;16.50;;;;;;;;7286769;19;150272;-77
2021/11/15 23:09:59;;;;;;;;;17.25;16.75;;;;;;;;7290587;19;150260;-75
2021/11/15 23:12:25;;;;;;;;;16.75;15.50;;;;;;;;7291967;19;149250;-75
2021/11/15 23:14:50;;;;;;;;;19.50;16.25;;;;;;;;7292112;19;149751;-74
2021/11/15 23:17:16;;;;;;;;;16.75;13.25;;;;;;;;7290067;19;149612;-75
2021/11/15 23:19:42;;;;;;;;;18.25;14.25;;;;;;;;7299716;19;149847;-75
2021/11/15 23:22:07;;;;;;;;;11.50;11.50;;;;;;;;7291923;19;149446;-76
2021/11/15 23:24:33;;;;;;;;;15.50;13.25;;;;;;;;7293150;19;149378;-76
2021/11/15 23:26:58;;;;;;;;;16.25;13.00;;;;;;;;7293197;19;149671;-76
2021/11/15 23:29:24;;;;;;;;;21.00;15.25;;;;;;;;7291549;19;149869;-76
2021/11/15 23:31:50;;;;;;;;;14.75;12.50;;;;;;;;7292949;19;149088;-75
2021/11/15 23:34:15;;;;;;;;;16.50;13.00;;;;;;;;7292627;19;149643;-75
2021/11/15 23:36:41;;;;;;;;;13.25;12.25;;;;;;;;7289895;19;149706;-75
2021/11/15 23:39:06;;;;;;;;;13.25;10.50;;;;;;;;7291159;19;149311;-74
2021/11/15 23:41:32;;;;;;;;;15.50;13.25;;;;;;;;7298657;19;149207;-76
2021/11/15 23:43:57;;;;;;;;;16.50;13.75;;;;;;;;7292681;19;149192;-76
2021/11/15 23:46:25;;;;;;;;;16.75;13.00;;;;;;;;7292668;19;149311;-76
2021/11/15 23:48:52;;;;;;;;;17.00;15.50;;;;;;;;7291043;19;151419;-76
2021/11/15 23:51:17;;;;;;;;;13.50;12.75;;;;;;;;7292383;19;149311;-76
2021/11/15 23:53:43;;;;;;;;;23.50;15.00;;;;;;;;7292083;19;150435;-76
2021/11/15 23:56:10;;;;;;;;;20.50;16.50;;;;;;;;7289942;19;151390;-75
2021/11/15 23:58:35;;;;;;;;;15.50;12.25;;;;;;;;7288238;19;149085;-75
